Warning: A non-numeric value encountered in /var/www/orzepowice24.pl/weather28/wsFunctions.php on line 312

Warning: A non-numeric value encountered in /var/www/orzepowice24.pl/weather28/wsFunctions.php on line 312

Warning: A non-numeric value encountered in /var/www/orzepowice24.pl/weather28/wsFunctions.php on line 312

Warning: A non-numeric value encountered in /var/www/orzepowice24.pl/weather28/wsFunctions.php on line 267

Warning: A non-numeric value encountered in /var/www/orzepowice24.pl/weather28/wsFunctions.php on line 267

Warning: A non-numeric value encountered in /var/www/orzepowice24.pl/weather28/wsFunctions.php on line 267

Warning: A non-numeric value encountered in /var/www/orzepowice24.pl/weather28/wsFunctions.php on line 267
Amatorska stacja pogodowa orzepowice24.pl
Bogaty zestaw statystyk w zakładce „DOKŁADNE STATYSTYKI”

Visit our other weather sites:

Template documentation
and downloads

SZCZEGÓŁOWE STATYSTYKI

weather34-X5


You find our weather info also at:

UK Metoffice

WeatherCloud

Weather Underground

AWEKAS

WeatherlinkIP

Citizen Weather Observer Program (CWOP)

HAMweather, WeatherForYou, PWS Weather


No particular awareness of the weather is required.    There are no Weather-warnings

Raporty METAR w pobliżu


Warning: A non-numeric value encountered in /var/www/orzepowice24.pl/weather28/metar/metarDisplay.php on line 166

Warning: A non-numeric value encountered in /var/www/orzepowice24.pl/weather28/metar/wsMetarTxt.php on line 609

Warning: A non-numeric value encountered in /var/www/orzepowice24.pl/weather28/metar/wsMetarTxt.php on line 609
   
EPKT - Katowice
Zaktualizowano: 20-06-2018 12:30
Bezchmurne niebo  
Bezchmurne niebo  
   Wiatr: varies 7.4 km/h
Wiatr: varies 7.4 km/h
Temperatura: 25°C
Punkt rosy: 11°C
Wilgotność: 42%
Ciśnienie: 1023 hPa
Widoczność: Więcej niż 10 km
Szczegóły dotyczące chmur: Bezchmurne niebo
EPKT 201030Z VRB04KT CAVOK 25/11 Q1023
EPKK - Kraków
Zaktualizowano: 20-06-2018 12:30
Częściowe Zachmurzenie  
Częściowe Zachmurzenie  
   Wiatr: NNW 9.3 km/h
Wiatr: NNW 9.3 km/h
Temperatura: 25°C
Punkt rosy: 14°C
Wilgotność: 51%
Ciśnienie: 1023 hPa
Zachmurzenie: Częściowe Zachmurzenie
Widoczność: Więcej niż 10 km
Szczegóły dotyczące chmur: Niewiele chmur 4600 ft,
Częściowe Zachmurzenie 6000 ft
EPKK 201030Z 33005KT 290V030 9999 FEW046 SCT060 25/14 Q1023
LKMT - Ostrava
Zaktualizowano: 20-06-2018 12:30
Niewiele chmur  
Niewiele chmur  
   Wiatr: Północ 9.3 km/h
Wiatr: Północ 9.3 km/h
Temperatura: 26°C
Punkt rosy: 15°C
Wilgotność: 51%
Ciśnienie: 1023 hPa
Zachmurzenie: Niewiele chmur
Widoczność: Więcej niż 10 km
Szczegóły dotyczące chmur: Niewiele chmur 4700 ft
LKMT 201030Z 35005KT 310V060 9999 FEW047 26/15 Q1023 NOSIG
LZZI - Žilina
Zaktualizowano: 20-06-2018 12:30
W większości pochmurnie  
W większości pochmurnie  
   Wiatr: SSE 5.6 km/h
Wiatr: SSE 5.6 km/h
Temperatura: 27°C
Punkt rosy: 12°C
Wilgotność: 39%
Ciśnienie: 1023 hPa
Zachmurzenie: W większości pochmurnie
Widoczność: Więcej niż 10 km
Szczegóły dotyczące chmur: Niewiele chmur 4500 ft,
W większości pochmurnie 7500 ft
LZZI 201030Z 16003KT 100V240 9999 FEW045 BKN075 27/12 Q1023
  

Skrypt opracowany przez  Saratoga-weather.org Dostosowany do szablonu przez  Weerstation Leuven